Time,TemperatureF,DewpointF,PressureIn,WindDirection,WindDirectionDegrees,WindSpeedMPH,WindSpeedGustMPH,Humidity,HourlyPrecipIn,Conditions,Clouds,dailyrainin,SoftwareType,DateUTC
2013-09-23 00:00:00,23.0,21.0,29.38,West,269,4.0,9.0,91,0.00,,,0.00,,2013-09-23 08:00:00,
2013-09-23 00:42:00,23.0,21.0,29.38,West,269,4.0,9.0,91,0.00,,,0.00,,2013-09-23 08:42:00,
2013-09-23 00:52:00,23.0,21.0,29.38,West,269,4.0,9.0,91,0.00,,,0.00,,2013-09-23 08:52:00,
2013-09-23 01:00:00,23.0,21.0,29.40,West,273,5.0,9.0,91,0.00,,,0.00,,2013-09-23 09:00:00,
2013-09-23 01:43:00,23.0,21.0,29.40,West,273,5.0,9.0,91,0.00,,,0.00,,2013-09-23 09:43:00,
2013-09-23 01:53:00,23.0,21.0,29.40,West,273,5.0,9.0,91,0.00,,,0.00,,2013-09-23 09:53:00,
2013-09-23 02:00:00,22.0,20.0,29.42,West,270,4.0,8.0,91,0.00,,,0.00,,2013-09-23 10:00:00,
2013-09-23 02:42:00,22.0,20.0,29.42,West,270,4.0,8.0,91,0.00,,,0.00,,2013-09-23 10:42:00,
2013-09-23 02:52:00,22.0,20.0,29.42,West,270,4.0,8.0,91,0.00,,,0.00,,2013-09-23 10:52:00,
2013-09-23 03:00:00,22.0,20.0,29.45,West,279,4.0,8.0,91,0.00,,,0.00,,2013-09-23 11:00:00,
2013-09-23 03:42:00,22.0,20.0,29.45,West,279,4.0,8.0,91,0.00,,,0.00,,2013-09-23 11:42:00,
2013-09-23 03:52:00,22.0,20.0,29.45,West,279,4.0,8.0,91,0.00,,,0.00,,2013-09-23 11:52:00,
2013-09-23 04:00:00,21.0,18.0,29.46,West,270,3.0,7.0,90,0.00,,,-99.99,,2013-09-23 12:00:00,
2013-09-23 04:42:00,21.0,18.0,29.46,West,270,3.0,7.0,90,0.00,,,-99.99,,2013-09-23 12:42:00,
2013-09-23 04:52:00,21.0,18.0,29.46,West,270,3.0,7.0,90,0.00,,,-99.99,,2013-09-23 12:52:00,
2013-09-23 05:00:00,21.0,18.0,29.48,West,274,2.0,5.0,90,0.00,,,0.00,,2013-09-23 13:00:00,
2013-09-23 05:42:00,21.0,18.0,29.48,West,274,2.0,5.0,90,0.00,,,0.00,,2013-09-23 13:42:00,
2013-09-23 05:52:00,21.0,18.0,29.48,West,274,2.0,5.0,90,0.00,,,0.00,,2013-09-23 13:52:00,
2013-09-23 06:00:00,19.0,16.0,29.49,West,280,2.0,4.0,89,0.00,,,0.00,,2013-09-23 14:00:00,
2013-09-23 06:43:00,19.0,16.0,29.49,West,280,2.0,4.0,89,0.00,,,0.00,,2013-09-23 14:43:00,
2013-09-23 06:52:00,19.0,16.0,29.49,West,280,2.0,4.0,89,0.00,,,0.00,,2013-09-23 14:52:00,
2013-09-23 07:00:00,19.0,16.0,29.51,West,279,1.0,3.0,89,0.00,,,0.00,,2013-09-23 15:00:00,
2013-09-23 07:43:00,19.0,16.0,29.51,West,279,1.0,3.0,89,0.00,,,0.00,,2013-09-23 15:43:00,
2013-09-23 07:54:00,19.0,16.0,29.51,West,279,1.0,3.0,89,0.00,,,0.00,,2013-09-23 15:54:00,
2013-09-23 08:00:00,20.0,17.0,29.52,West,280,1.0,3.0,89,0.00,,,0.00,,2013-09-23 16:00:00,
2013-09-23 08:43:00,20.0,17.0,29.52,West,280,1.0,3.0,89,0.00,,,0.00,,2013-09-23 16:43:00,
2013-09-23 08:53:00,20.0,17.0,29.52,West,280,1.0,3.0,89,0.00,,,0.00,,2013-09-23 16:53:00,
2013-09-23 09:00:00,22.0,19.0,29.54,West,259,0.0,5.0,90,0.00,,,0.00,,2013-09-23 17:00:00,
2013-09-23 09:42:00,22.0,19.0,29.54,West,259,0.0,5.0,90,0.00,,,0.00,,2013-09-23 17:42:00,
2013-09-23 09:52:00,22.0,19.0,29.54,West,259,0.0,5.0,90,0.00,,,0.00,,2013-09-23 17:52:00,
2013-09-23 10:00:00,24.0,21.0,29.56,WNW,283,0.0,2.0,90,0.00,,,0.00,,2013-09-23 18:00:00,
2013-09-23 10:42:00,24.0,21.0,29.56,WNW,283,0.0,2.0,90,0.00,,,0.00,,2013-09-23 18:42:00,
2013-09-23 10:52:00,24.0,21.0,29.56,WNW,283,0.0,2.0,90,0.00,,,0.00,,2013-09-23 18:52:00,
2013-09-23 11:00:00,26.0,23.0,29.57,West,261,0.0,3.0,89,0.00,,,0.00,,2013-09-23 19:00:00,
2013-09-23 11:42:00,26.0,23.0,29.57,West,261,0.0,3.0,89,0.00,,,0.00,,2013-09-23 19:42:00,
2013-09-23 11:53:00,26.0,23.0,29.57,West,261,0.0,3.0,89,0.00,,,0.00,,2013-09-23 19:53:00,
2013-09-23 12:00:00,29.0,26.0,29.58,West,270,2.0,4.0,87,0.00,,,0.00,,2013-09-23 20:00:00,
2013-09-23 12:42:00,29.0,26.0,29.58,West,270,2.0,4.0,87,0.00,,,0.00,,2013-09-23 20:42:00,
2013-09-23 12:52:00,29.0,26.0,29.58,West,270,2.0,4.0,87,0.00,,,0.00,,2013-09-23 20:52:00,
2013-09-23 13:00:00,30.0,25.0,29.61,WSW,254,2.0,6.0,83,0.00,,,0.00,,2013-09-23 21:00:00,
2013-09-23 13:44:00,30.0,25.0,29.61,WSW,254,2.0,6.0,83,0.00,,,0.00,,2013-09-23 21:44:00,
2013-09-23 13:54:00,30.0,25.0,29.61,WSW,254,2.0,6.0,83,0.00,,,0.00,,2013-09-23 21:54:00,
2013-09-23 14:00:00,30.0,25.0,29.62,West,274,3.0,7.0,80,0.01,,,0.01,,2013-09-23 22:00:00,
2013-09-23 14:43:00,30.0,25.0,29.62,West,274,3.0,7.0,80,0.01,,,0.01,,2013-09-23 22:43:00,
2013-09-23 14:54:00,30.0,25.0,29.62,West,274,3.0,7.0,80,0.01,,,0.01,,2013-09-23 22:54:00,
2013-09-23 15:00:00,29.0,24.0,29.63,West,260,3.0,7.0,82,0.05,,,0.06,,2013-09-23 23:00:00,
2013-09-23 15:42:00,29.0,24.0,29.63,West,260,3.0,7.0,82,0.05,,,0.06,,2013-09-23 23:42:00,
2013-09-23 15:54:00,29.0,24.0,29.63,West,260,3.0,7.0,82,0.05,,,0.06,,2013-09-23 23:54:00,
2013-09-23 16:00:00,28.0,23.0,29.64,West,259,3.0,6.0,82,0.03,,,0.09,,2013-09-24 00:00:00,
2013-09-23 16:43:00,28.0,23.0,29.64,West,259,3.0,6.0,82,0.03,,,0.09,,2013-09-24 00:43:00,
2013-09-23 16:52:00,28.0,23.0,29.64,West,259,3.0,6.0,82,0.03,,,0.09,,2013-09-24 00:52:00,
2013-09-23 17:00:00,27.0,23.0,29.66,WSW,242,3.0,7.0,83,0.00,,,0.09,,2013-09-24 01:00:00,
2013-09-23 17:43:00,27.0,23.0,29.66,WSW,242,3.0,7.0,83,0.00,,,0.09,,2013-09-24 01:43:00,
2013-09-23 17:52:00,27.0,23.0,29.66,WSW,242,3.0,7.0,83,0.00,,,0.09,,2013-09-24 01:52:00,
2013-09-23 18:00:00,25.0,21.0,29.67,WSW,257,2.0,6.0,85,0.00,,,0.09,,2013-09-24 02:00:00,
2013-09-23 18:42:00,25.0,21.0,29.67,WSW,257,2.0,6.0,85,0.00,,,0.09,,2013-09-24 02:42:00,
2013-09-23 18:52:00,25.0,21.0,29.67,WSW,257,2.0,6.0,85,0.00,,,0.09,,2013-09-24 02:52:00,
2013-09-23 19:00:00,24.0,20.0,29.68,WSW,251,3.0,6.0,83,0.00,,,0.09,,2013-09-24 03:00:00,
2013-09-23 19:45:00,24.0,20.0,29.68,WSW,251,3.0,6.0,83,0.00,,,0.09,,2013-09-24 03:45:00,
2013-09-23 19:54:00,24.0,20.0,29.68,WSW,251,3.0,6.0,83,0.00,,,0.09,,2013-09-24 03:54:00,
2013-09-23 20:00:00,24.0,21.0,29.69,WSW,255,3.0,6.0,87,0.00,,,0.09,,2013-09-24 04:00:00,
2013-09-23 20:44:00,24.0,21.0,29.69,WSW,255,3.0,6.0,87,0.00,,,0.09,,2013-09-24 04:44:00,
2013-09-23 20:54:00,24.0,21.0,29.69,WSW,255,3.0,6.0,87,0.00,,,0.09,,2013-09-24 04:54:00,
2013-09-23 21:00:00,24.0,21.0,29.70,WSW,240,3.0,8.0,88,0.00,,,0.09,,2013-09-24 05:00:00,
2013-09-23 21:43:00,24.0,21.0,29.70,WSW,240,3.0,8.0,88,0.00,,,0.09,,2013-09-24 05:43:00,
2013-09-23 21:53:00,24.0,21.0,29.70,WSW,240,3.0,8.0,88,0.00,,,0.09,,2013-09-24 05:53:00,
2013-09-23 22:00:00,24.0,21.0,29.72,WSW,243,3.0,6.0,89,0.00,,,0.09,,2013-09-24 06:00:00,
2013-09-23 22:42:00,24.0,21.0,29.72,WSW,243,3.0,6.0,89,0.00,,,0.09,,2013-09-24 06:42:00,
2013-09-23 22:52:00,24.0,21.0,29.72,WSW,243,3.0,6.0,89,0.00,,,0.09,,2013-09-24 06:52:00,
2013-09-23 23:00:00,24.0,21.0,29.73,SW,236,3.0,10.0,87,0.00,,,0.09,,2013-09-24 07:00:00,
2013-09-23 23:43:00,24.0,21.0,29.73,SW,236,3.0,10.0,87,0.00,,,0.09,,2013-09-24 07:43:00,
2013-09-23 23:52:00,24.0,21.0,29.73,SW,236,3.0,10.0,87,0.00,,,0.09,,2013-09-24 07:52:00,